Observation data for Goodlett on 05/14/2018      Previous  Date  Next       Current Mesonet Observations  Soil Data  Daily Summary Page  Observations in Plain Language
KGDS 140500Z 08010KT 23/18 A2989 RMK A01 T02330178  RH  073%=      5-min Rain = 0
KGDS 140505Z 08010KT 23/18 A2989 RMK A01 T02330178  RH  073%=      5-min Rain = 0
KGDS 140510Z 08010KT 24/18 A2989 RMK A01 T02360176  RH  071%=      5-min Rain = 0
KGDS 140515Z 08010KT 24/17 A2989 RMK A01 T02370174  RH  069%=      5-min Rain = 0
KGDS 140520Z 08011KT 24/17 A2989 RMK A01 T02380173  RH  068%=      5-min Rain = 0
KGDS 140525Z 09012KT 24/17 A2989 RMK A01 T02410170  RH  066%=      5-min Rain = 0
KGDS 140530Z 09012KT 25/17 A2989 RMK A01 T02460166  RH  063%=      5-min Rain = 0
KGDS 140535Z 09014G19KT 25/16 A2989 RMK A01 T02500163  RH  060%=      5-min Rain = 0
KGDS 140540Z 09014G19KT 25/16 A2989 RMK A01 T02510162  RH  059%=      5-min Rain = 0
KGDS 140545Z 09015KT 25/16 A299 RMK A01 T02520161  RH  059%=      5-min Rain = 0
KGDS 140550Z 09015KT 25/16 A299 RMK A01 T02520161  RH  058%=      5-min Rain = 0
KGDS 140555Z 10014G19KT 25/16 A299 RMK A01 T02520161  RH  059%=      5-min Rain = 0
KGDS 140600Z 10014G19KT 25/16 A299 RMK A01 T02510162  RH  059%=      5-min Rain = 0
KGDS 140605Z 10014KT 25/16 A299 RMK A01 T02510162  RH  059%=      5-min Rain = 0
KGDS 140610Z 10015G23KT 25/16 A299 RMK A01 T02510163  RH  060%=      5-min Rain = 0
KGDS 140615Z 11015KT 25/16 A299 RMK A01 T02500164  RH  060%=      5-min Rain = 0
KGDS 140620Z 11016KT 25/17 A299 RMK A01 T02490165  RH  061%=      5-min Rain = 0
KGDS 140625Z 11015G20KT 25/17 A299 RMK A01 T02480166  RH  062%=      5-min Rain = 0
KGDS 140630Z 11014KT 25/17 A299 RMK A01 T02470166  RH  062%=      5-min Rain = 0
KGDS 140635Z 11014G19KT 25/17 A2989 RMK A01 T02460166  RH  063%=      5-min Rain = 0
KGDS 140640Z 11014KT 25/17 A2989 RMK A01 T02450166  RH  063%=      5-min Rain = 0
KGDS 140645Z 11014G19KT 24/17 A2989 RMK A01 T02440167  RH  063%=      5-min Rain = 0
KGDS 140650Z 11014KT 24/17 A2989 RMK A01 T02440167  RH  064%=      5-min Rain = 0
KGDS 140655Z 11015KT 24/17 A2989 RMK A01 T02440167  RH  064%=      5-min Rain = 0
KGDS 140700Z 11013KT 24/17 A2989 RMK A01 T02430167  RH  064%=      5-min Rain = 0
KGDS 140705Z 11014KT 24/17 A2989 RMK A01 T02420167  RH  065%=      5-min Rain = 0
KGDS 140710Z 11013G18KT 24/17 A2989 RMK A01 T02410167  RH  065%=      5-min Rain = 0
KGDS 140715Z 12015KT 24/17 A2989 RMK A01 T02410167  RH  065%=      5-min Rain = 0
KGDS 140720Z 12015KT 24/17 A2989 RMK A01 T02410167  RH  065%=      5-min Rain = 0
KGDS 140725Z 13016KT 24/17 A2989 RMK A01 T02420167  RH  064%=      5-min Rain = 0
KGDS 140730Z 13015G21KT 24/17 A2989 RMK A01 T02420167  RH  064%=      5-min Rain = 0
KGDS 140735Z 13015G21KT 24/17 A2989 RMK A01 T02410167  RH  065%=      5-min Rain = 0
KGDS 140740Z 14014KT 24/17 A2988 RMK A01 T02410166  RH  064%=      5-min Rain = 0
KGDS 140745Z 13014G19KT 24/17 A2988 RMK A01 T02420166  RH  064%=      5-min Rain = 0
KGDS 140750Z 13013KT 24/17 A2988 RMK A01 T02420166  RH  064%=      5-min Rain = 0
KGDS 140755Z 14012KT 24/17 A2988 RMK A01 T02410166  RH  065%=      5-min Rain = 0
KGDS 140800Z 14013KT 24/17 A2988 RMK A01 T02410166  RH  064%=      5-min Rain = 0
KGDS 140805Z 13013G19KT 24/17 A2988 RMK A01 T02410166  RH  064%=      5-min Rain = 0
KGDS 140810Z 13014KT 24/17 A2988 RMK A01 T02400166  RH  065%=      5-min Rain = 0
KGDS 140815Z 13013G18KT 24/17 A2988 RMK A01 T02400166  RH  065%=      5-min Rain = 0
KGDS 140820Z 13014KT 24/17 A2988 RMK A01 T02390166  RH  065%=      5-min Rain = 0
KGDS 140825Z 13013KT 24/17 A2987 RMK A01 T02390166  RH  066%=      5-min Rain = 0
KGDS 140830Z 14013KT 24/17 A2987 RMK A01 T02370167  RH  066%=      5-min Rain = 0
KGDS 140835Z 14014KT 24/17 A2987 RMK A01 T02380167  RH  066%=      5-min Rain = 0
KGDS 140840Z 14014KT 24/17 A2987 RMK A01 T02380167  RH  066%=      5-min Rain = 0
KGDS 140845Z 14015KT 24/17 A2987 RMK A01 T02380167  RH  066%=      5-min Rain = 0
KGDS 140850Z 14015KT 24/17 A2987 RMK A01 T02380167  RH  066%=      5-min Rain = 0
KGDS 140855Z 14014KT 24/17 A2987 RMK A01 T02370167  RH  066%=      5-min Rain = 0
KGDS 140900Z 14014KT 24/17 A2987 RMK A01 T02360167  RH  067%=      5-min Rain = 0
KGDS 140905Z 14014KT 24/17 A2987 RMK A01 T02350167  RH  067%=      5-min Rain = 0
KGDS 140910Z 14013KT 24/17 A2987 RMK A01 T02350167  RH  067%=      5-min Rain = 0
KGDS 140915Z 14014KT 23/17 A2987 RMK A01 T02340167  RH  068%=      5-min Rain = 0
KGDS 140920Z 14014KT 23/17 A2987 RMK A01 T02330167  RH  068%=      5-min Rain = 0
KGDS 140925Z 14014KT 23/17 A2987 RMK A01 T02320167  RH  068%=      5-min Rain = 0
KGDS 140930Z 14013KT 23/17 A2987 RMK A01 T02310167  RH  069%=      5-min Rain = 0
KGDS 140935Z 14014KT 23/17 A2987 RMK A01 T02310167  RH  069%=      5-min Rain = 0
KGDS 140940Z 14012KT 23/17 A2987 RMK A01 T02300167  RH  069%=      5-min Rain = 0
KGDS 140945Z 14012KT 23/17 A2987 RMK A01 T02290167  RH  070%=      5-min Rain = 0
KGDS 140950Z 14011KT 23/17 A2987 RMK A01 T02290167  RH  070%=      5-min Rain = 0
KGDS 140955Z 14011KT 23/17 A2987 RMK A01 T02280167  RH  070%=      5-min Rain = 0
KGDS 141000Z 14011KT 23/17 A2988 RMK A01 T02270167  RH  071%=      5-min Rain = 0
KGDS 141005Z 14011KT 23/17 A2988 RMK A01 T02270167  RH  071%=      5-min Rain = 0
KGDS 141010Z 14010KT 23/17 A2988 RMK A01 T02260167  RH  071%=      5-min Rain = 0
KGDS 141015Z 14011KT 23/17 A2988 RMK A01 T02250167  RH  071%=      5-min Rain = 0
KGDS 141020Z 14010KT 23/17 A2988 RMK A01 T02250166  RH  071%=      5-min Rain = 0
KGDS 141025Z 14011KT 23/17 A2988 RMK A01 T02250167  RH  071%=      5-min Rain = 0
KGDS 141030Z 14010KT 22/17 A2988 RMK A01 T02240166  RH  071%=      5-min Rain = 0
KGDS 141035Z 14010KT 22/17 A2988 RMK A01 T02240166  RH  071%=      5-min Rain = 0
KGDS 141040Z 14009KT 22/17 A2989 RMK A01 T02240166  RH  072%=      5-min Rain = 0
KGDS 141045Z 14010KT 22/17 A2989 RMK A01 T02240166  RH  072%=      5-min Rain = 0
KGDS 141050Z 14010KT 22/17 A2989 RMK A01 T02240166  RH  072%=      5-min Rain = 0
KGDS 141055Z 14010KT 22/17 A2989 RMK A01 T02230166  RH  072%=      5-min Rain = 0
KGDS 141100Z 14010KT 22/17 A2989 RMK A01 T02230166  RH  072%=      5-min Rain = 0
KGDS 141105Z 14010KT 22/17 A2989 RMK A01 T02230166  RH  072%=      5-min Rain = 0
KGDS 141110Z 14010KT 22/17 A2989 RMK A01 T02230166  RH  072%=      5-min Rain = 0
KGDS 141115Z 15010G15KT 22/17 A2989 RMK A01 T02230166  RH  072%=      5-min Rain = 0
KGDS 141120Z 15012KT 22/17 A2989 RMK A01 T02240166  RH  071%=      5-min Rain = 0
KGDS 141125Z 15012KT 23/17 A2989 RMK A01 T02260167  RH  071%=      5-min Rain = 0
KGDS 141130Z 15012KT 23/17 A2989 RMK A01 T02270167  RH  071%=      5-min Rain = 0
KGDS 141135Z 15013KT 23/17 A2989 RMK A01 T02280168  RH  070%=      5-min Rain = 0
KGDS 141140Z 15013G18KT 23/17 A2989 RMK A01 T02280168  RH  070%=      5-min Rain = 0
KGDS 141145Z 15014KT 23/17 A2989 RMK A01 T02290168  RH  070%=      5-min Rain = 0
KGDS 141150Z 15013KT 23/17 A2989 RMK A01 T02300168  RH  070%=      5-min Rain = 0
KGDS 141155Z 15013KT 23/17 A2989 RMK A01 T02300169  RH  070%=      5-min Rain = 0
KGDS 141200Z 15012G18KT 23/17 A2989 RMK A01 T02300169  RH  070%=      5-min Rain = 0
KGDS 141205Z 15012KT 23/17 A2989 RMK A01 T02310169  RH  070%=      5-min Rain = 0
KGDS 141210Z 15012KT 23/17 A2989 RMK A01 T02320169  RH  070%=      5-min Rain = 0
KGDS 141215Z 15013G18KT 23/17 A2989 RMK A01 T02330170  RH  069%=      5-min Rain = 0
KGDS 141220Z 16014G20KT 23/17 A2989 RMK A01 T02340170  RH  069%=      5-min Rain = 0
KGDS 141225Z 16013G19KT 24/17 A2989 RMK A01 T02360171  RH  069%=      5-min Rain = 0
KGDS 141230Z 16015KT 24/17 A299 RMK A01 T02360171  RH  068%=      5-min Rain = 0
KGDS 141235Z 16015KT 24/17 A299 RMK A01 T02360171  RH  068%=      5-min Rain = 0
KGDS 141240Z 16015KT 24/17 A299 RMK A01 T02380172  RH  068%=      5-min Rain = 0
KGDS 141245Z 16014KT 24/17 A299 RMK A01 T02420173  RH  067%=      5-min Rain = 0
KGDS 141250Z 16015KT 24/17 A299 RMK A01 T02430173  RH  066%=      5-min Rain = 0
KGDS 141255Z 16016G23KT 25/17 A299 RMK A01 T02470173  RH  065%=      5-min Rain = 0
KGDS 141300Z 16016KT 25/17 A299 RMK A01 T02460173  RH  065%=      5-min Rain = 0
KGDS 141305Z 17016KT 25/17 A2991 RMK A01 T02480174  RH  065%=      5-min Rain = 0
KGDS 141310Z 17015KT 25/17 A2991 RMK A01 T02490174  RH  064%=      5-min Rain = 0
KGDS 141315Z 17016KT 25/17 A2991 RMK A01 T02500173  RH  064%=      5-min Rain = 0
KGDS 141320Z 17015KT 25/18 A2991 RMK A01 T02510175  RH  064%=      5-min Rain = 0
KGDS 141325Z 17016KT 26/18 A2991 RMK A01 T02550175  RH  063%=      5-min Rain = 0
KGDS 141330Z 17016G22KT 26/18 A2991 RMK A01 T02570175  RH  062%=      5-min Rain = 0
KGDS 141335Z 17014KT 26/18 A2991 RMK A01 T02610176  RH  061%=      5-min Rain = 0
KGDS 141340Z 17015G20KT 26/18 A2991 RMK A01 T02630176  RH  060%=      5-min Rain = 0
KGDS 141345Z 17018KT 27/18 A2991 RMK A01 T02650176  RH  059%=      5-min Rain = 0
KGDS 141350Z 17016KT 27/18 A2992 RMK A01 T02670177  RH  059%=      5-min Rain = 0
KGDS 141355Z 18016G21KT 27/18 A2992 RMK A01 T02710177  RH  058%=      5-min Rain = 0
KGDS 141400Z 18018KT 27/18 A2992 RMK A01 T02700176  RH  058%=      5-min Rain = 0
KGDS 141405Z 18018G24KT 27/18 A2992 RMK A01 T02700177  RH  058%=      5-min Rain = 0
KGDS 141410Z 17019G24KT 27/18 A2992 RMK A01 T02710177  RH  058%=      5-min Rain = 0
KGDS 141415Z 18017G22KT 27/18 A2992 RMK A01 T02730178  RH  057%=      5-min Rain = 0
KGDS 141420Z 19017KT 27/18 A2992 RMK A01 T02740178  RH  057%=      5-min Rain = 0
KGDS 141425Z 18016G21KT 28/18 A2992 RMK A01 T02770178  RH  056%=      5-min Rain = 0
KGDS 141430Z 18015G21KT 28/18 A2992 RMK A01 T02800179  RH  056%=      5-min Rain = 0
KGDS 141435Z 19014G19KT 28/18 A2992 RMK A01 T02830179  RH  055%=      5-min Rain = 0
KGDS 141440Z 19018G23KT 28/18 A2992 RMK A01 T02820179  RH  055%=      5-min Rain = 0
KGDS 141445Z 19017KT 28/18 A2992 RMK A01 T02820179  RH  055%=      5-min Rain = 0
KGDS 141450Z 18018G23KT 28/18 A2992 RMK A01 T02840179  RH  054%=      5-min Rain = 0
KGDS 141455Z 18017G22KT 28/18 A2992 RMK A01 T02830179  RH  054%=      5-min Rain = 0
KGDS 141500Z 19016G21KT 28/18 A2991 RMK A01 T02830178  RH  054%=      5-min Rain = 0
KGDS 141505Z 19017KT 29/18 A2991 RMK A01 T02870179  RH  053%=      5-min Rain = 0
KGDS 141510Z 20016G22KT 29/18 A2991 RMK A01 T02890178  RH  053%=      5-min Rain = 0
KGDS 141515Z 18020KT 29/18 A2991 RMK A01 T02920177  RH  051%=      5-min Rain = 0
KGDS 141520Z 19017G23KT 29/18 A2991 RMK A01 T02920178  RH  051%=      5-min Rain = 0
KGDS 141525Z 18017G24KT 30/18 A2991 RMK A01 T02950178  RH  051%=      5-min Rain = 0
KGDS 141530Z 19018G23KT 30/18 A2991 RMK A01 T02960178  RH  050%=      5-min Rain = 0
KGDS 141535Z 19016G23KT 30/18 A299 RMK A01 T02990178  RH  049%=      5-min Rain = 0
KGDS 141540Z 19018KT 30/18 A299 RMK A01 T02990176  RH  049%=      5-min Rain = 0
KGDS 141545Z 19018KT 30/18 A299 RMK A01 T03000176  RH  048%=      5-min Rain = 0
KGDS 141550Z 19017G22KT 30/18 A299 RMK A01 T03010177  RH  048%=      5-min Rain = 0
KGDS 141555Z 20019G26KT 30/18 A299 RMK A01 T03030176  RH  048%=      5-min Rain = 0
KGDS 141600Z 20017G24KT 30/18 A299 RMK A01 T03030176  RH  048%=      5-min Rain = 0
KGDS 141605Z 19015G21KT 31/18 A299 RMK A01 T03050177  RH  048%=      5-min Rain = 0
KGDS 141610Z 21017G23KT 31/17 A299 RMK A01 T03060174  RH  046%=      5-min Rain = 0
KGDS 141615Z 19016G21KT 31/17 A299 RMK A01 T03100174  RH  045%=      5-min Rain = 0
KGDS 141620Z 20016G21KT 31/17 A299 RMK A01 T03100172  RH  045%=      5-min Rain = 0
KGDS 141625Z 20015G21KT 31/18 A299 RMK A01 T03100175  RH  045%=      5-min Rain = 0
KGDS 141630Z 19017G24KT 31/17 A299 RMK A01 T03130172  RH  044%=      5-min Rain = 0
KGDS 141635Z 20016G21KT 32/17 A299 RMK A01 T03170172  RH  043%=      5-min Rain = 0
KGDS 141640Z 21015G21KT 32/17 A299 RMK A01 T03180169  RH  042%=      5-min Rain = 0
KGDS 141645Z 20017G24KT 32/17 A299 RMK A01 T03190169  RH  042%=      5-min Rain = 0
KGDS 141650Z 19014G19KT 32/17 A299 RMK A01 T03160170  RH  043%=      5-min Rain = 0
KGDS 141655Z 19015G22KT 32/17 A299 RMK A01 T03180169  RH  042%=      5-min Rain = 0
KGDS 141700Z 19013G20KT 32/17 A299 RMK A01 T03200170  RH  042%=      5-min Rain = 0
KGDS 141705Z 18013G20KT 32/17 A2989 RMK A01 T03210168  RH  041%=      5-min Rain = 0
KGDS 141710Z 19014G20KT 32/17 A2989 RMK A01 T03240169  RH  041%=      5-min Rain = 0
KGDS 141715Z 20014G19KT 33/16 A2989 RMK A01 T03250162  RH  039%=      5-min Rain = 0
KGDS 141720Z 18012G21KT 32/17 A2989 RMK A01 T03230165  RH  040%=      5-min Rain = 0
KGDS 141725Z 20015G21KT 33/16 A2989 RMK A01 T03260161  RH  038%=      5-min Rain = 0
KGDS 141730Z 19012G17KT 33/17 A2989 RMK A01 T03260165  RH  039%=      5-min Rain = 0
KGDS 141735Z 20013G18KT 33/17 A2989 RMK A01 T03280167  RH  039%=      5-min Rain = 0
KGDS 141740Z 19012G18KT 33/17 A2988 RMK A01 T03280165  RH  039%=      5-min Rain = 0
KGDS 141745Z 21013G18KT 33/16 A2988 RMK A01 T03290157  RH  037%=      5-min Rain = 0
KGDS 141750Z 20011G18KT 33/16 A2988 RMK A01 T03320155  RH  035%=      5-min Rain = 0
KGDS 141755Z 19012G19KT 33/16 A2988 RMK A01 T03340157  RH  035%=      5-min Rain = 0
KGDS 141800Z 18012G20KT 33/16 A2988 RMK A01 T03330163  RH  037%=      5-min Rain = 0
KGDS 141805Z 20013G19KT 34/15 A2988 RMK A01 T03360153  RH  034%=      5-min Rain = 0
KGDS 141810Z 18010G17KT 34/15 A2987 RMK A01 T03360153  RH  034%=      5-min Rain = 0
KGDS 141815Z 19012G18KT 34/15 A2987 RMK A01 T03380152  RH  033%=      5-min Rain = 0
KGDS 141820Z 17009KT 34/15 A2987 RMK A01 T03380151  RH  033%=      5-min Rain = 0
KGDS 141825Z 16011G18KT 34/15 A2987 RMK A01 T03420152  RH  033%=      5-min Rain = 0
KGDS 141830Z 19010G18KT 34/15 A2987 RMK A01 T03420154  RH  033%=      5-min Rain = 0
KGDS 141835Z 20012KT 34/15 A2986 RMK A01 T03440151  RH  032%=      5-min Rain = 0
KGDS 141840Z 20009G14KT 34/15 A2986 RMK A01 T03400152  RH  033%=      5-min Rain = 0
KGDS 141845Z 17009G14KT 35/15 A2986 RMK A01 T03460151  RH  032%=      5-min Rain = 0
KGDS 141850Z 20011G18KT 34/15 A2986 RMK A01 T03440151  RH  032%=      5-min Rain = 0
KGDS 141855Z 19008G13KT 34/15 A2986 RMK A01 T03410150  RH  033%=      5-min Rain = 0
KGDS 141900Z 21010G16KT 35/14 A2985 RMK A01 T03480144  RH  030%=      5-min Rain = 0
KGDS 141905Z 19008KT 35/15 A2985 RMK A01 T03500147  RH  030%=      5-min Rain = 0
KGDS 141910Z 19011G19KT 35/15 A2985 RMK A01 T03510147  RH  030%=      5-min Rain = 0
KGDS 141915Z 20011G22KT 35/14 A2985 RMK A01 T03510144  RH  030%=      5-min Rain = 0
KGDS 141920Z 20011G17KT 35/14 A2985 RMK A01 T03490138  RH  029%=      5-min Rain = 0
KGDS 141925Z 19011G16KT 35/14 A2985 RMK A01 T03520141  RH  029%=      5-min Rain = 0
KGDS 141930Z 20006KT 35/14 A2985 RMK A01 T03480144  RH  030%=      5-min Rain = 0
KGDS 141935Z 17005G13KT 34/14 A2984 RMK A01 T03440144  RH  031%=      5-min Rain = 0
KGDS 141940Z 18010G16KT 35/14 A2984 RMK A01 T03540141  RH  029%=      5-min Rain = 0
KGDS 141945Z 19008G15KT 36/14 A2984 RMK A01 T03560137  RH  028%=      5-min Rain = 0
KGDS 141950Z 19009KT 36/14 A2984 RMK A01 T03600137  RH  027%=      5-min Rain = 0
KGDS 141955Z 19008G14KT 36/13 A2983 RMK A01 T03620134  RH  026%=      5-min Rain = 0
KGDS 142000Z 17008G14KT 36/14 A2983 RMK A01 T03600137  RH  027%=      5-min Rain = 0
KGDS 142005Z 19010KT 36/14 A2983 RMK A01 T03610137  RH  027%=      5-min Rain = 0
KGDS 142010Z 18010KT 36/14 A2982 RMK A01 T03630141  RH  027%=      5-min Rain = 0
KGDS 142015Z 16013KT 36/14 A2982 RMK A01 T03630142  RH  027%=      5-min Rain = 0
KGDS 142020Z 17008G13KT 36/14 A2982 RMK A01 T03570141  RH  028%=      5-min Rain = 0
KGDS 142025Z 17009KT 36/14 A2981 RMK A01 T03560142  RH  028%=      5-min Rain = 0
KGDS 142030Z 14010KT 36/14 A2981 RMK A01 T03570142  RH  028%=      5-min Rain = 0
KGDS 142035Z 18010G15KT 36/14 A2981 RMK A01 T03570142  RH  028%=      5-min Rain = 0
KGDS 142040Z 14015G23KT 36/16 A298 RMK A01 T03610157  RH  031%=      5-min Rain = 0
KGDS 142045Z 12016KT 35/16 A298 RMK A01 T03530159  RH  032%=      5-min Rain = 0
KGDS 142050Z 15017G22KT 35/16 A298 RMK A01 T03500158  RH  033%=      5-min Rain = 0
KGDS 142055Z 14016G21KT 36/16 A298 RMK A01 T03550159  RH  032%=      5-min Rain = 0
KGDS 142100Z 13014G20KT 35/16 A2979 RMK A01 T03470156  RH  033%=      5-min Rain = 0
KGDS 142105Z 15015G21KT 35/16 A2979 RMK A01 T03510155  RH  032%=      5-min Rain = 0
KGDS 142110Z 14013G22KT 35/15 A2978 RMK A01 T03480153  RH  032%=      5-min Rain = 0
KGDS 142115Z 16014G22KT 35/15 A2978 RMK A01 T03520154  RH  031%=      5-min Rain = 0
KGDS 142120Z 14017KT 35/15 A2977 RMK A01 T03520153  RH  031%=      5-min Rain = 0
KGDS 142125Z 14015G22KT 35/15 A2976 RMK A01 T03510151  RH  031%=      5-min Rain = 0
KGDS 142130Z 13019G26KT 36/15 A2976 RMK A01 T03570154  RH  031%=      5-min Rain = 0
KGDS 142135Z 13018G23KT 36/15 A2976 RMK A01 T03550154  RH  031%=      5-min Rain = 0
KGDS 142140Z 15019G24KT 36/15 A2975 RMK A01 T03590152  RH  030%=      5-min Rain = 0
KGDS 142145Z 14019G27KT 35/15 A2975 RMK A01 T03510147  RH  030%=      5-min Rain = 0
KGDS 142150Z 13021G27KT 34/14 A2975 RMK A01 T03430144  RH  031%=      5-min Rain = 0
KGDS 142155Z 14020G27KT 34/14 A2975 RMK A01 T03380142  RH  031%=      5-min Rain = 0
KGDS 142200Z 14019KT 34/14 A2975 RMK A01 T03360144  RH  032%=      5-min Rain = 0
KGDS 142205Z 14018G23KT 33/14 A2975 RMK A01 T03340144  RH  032%=      5-min Rain = 0
KGDS 142210Z 14018G24KT 33/14 A2975 RMK A01 T03340142  RH  032%=      5-min Rain = 0
KGDS 142215Z 15015G20KT 34/14 A2975 RMK A01 T03350143  RH  032%=      5-min Rain = 0
KGDS 142220Z 14018KT 34/14 A2975 RMK A01 T03350144  RH  032%=      5-min Rain = 0
KGDS 142225Z 14021G28KT 33/15 A2975 RMK A01 T03340151  RH  034%=      5-min Rain = 0
KGDS 142230Z 15023G28KT 33/16 A2974 RMK A01 T03300161  RH  037%=      5-min Rain = 0
KGDS 142235Z 15022G29KT 33/16 A2974 RMK A01 T03260160  RH  038%=      5-min Rain = 0
KGDS 142240Z 15022G28KT 32/16 A2974 RMK A01 T03230159  RH  038%=      5-min Rain = 0
KGDS 142245Z 15020G26KT 32/16 A2975 RMK A01 T03210157  RH  038%=      5-min Rain = 0
KGDS 142250Z 15018G23KT 32/16 A2976 RMK A01 T03180158  RH  039%=      5-min Rain = 0
KGDS 142255Z 15016G21KT 32/16 A2977 RMK A01 T03160161  RH  040%=      5-min Rain = 0
KGDS 142300Z 14017G23KT 31/16 A2977 RMK A01 T03130162  RH  041%=      5-min Rain = 0
KGDS 142305Z 14016G21KT 31/16 A2976 RMK A01 T03110162  RH  042%=      5-min Rain = 0
KGDS 142310Z 15020G27KT 31/17 A2976 RMK A01 T03090166  RH  043%=      5-min Rain = 0
KGDS 142315Z 16023G30KT 31/17 A2975 RMK A01 T03050168  RH  045%=      5-min Rain = 0
KGDS 142320Z 16023G30KT 30/17 A2976 RMK A01 T03010168  RH  046%=      5-min Rain = 0
KGDS 142325Z 16024G30KT 30/17 A2975 RMK A01 T02960169  RH  047%=      5-min Rain = 0
KGDS 142330Z 16023G28KT 29/17 A2974 RMK A01 T02930170  RH  049%=      5-min Rain = 0
KGDS 142335Z 16024G29KT 29/17 A2972 RMK A01 T02910168  RH  049%=      5-min Rain = 0
KGDS 142340Z 16020G28KT 29/17 A2977 RMK A01 T02890170  RH  050%=      5-min Rain = 0
KGDS 142345Z 16016G22KT 29/17 A2983 RMK A01 T02890171  RH  050%=      5-min Rain = 0
KGDS 142350Z 16012KT 29/17 A2984 RMK A01 T02880172  RH  051%=      5-min Rain = 0
KGDS 142355Z 16015KT 29/17 A2983 RMK A01 T02870173  RH  051%=      5-min Rain = 0
KGDS 150000Z 15015KT 29/17 A2984 RMK A01 T02860173  RH  052%=      5-min Rain = 0
KGDS 150005Z 16013KT 29/17 A2985 RMK A01 T02850174  RH  052%=      5-min Rain = 0
KGDS 150010Z 25015G22KT 28/16 A2987 RMK A01 T02770158  RH  049%=      5-min Rain = 0
KGDS 150015Z 30017KT 24/14 A2988 RMK A01 T02440143  RH  054%=      5-min Rain = 0
KGDS 150020Z 30021G29KT 24/14 A2988 RMK A01 T02360140  RH  056%=      5-min Rain = 0
KGDS 150025Z 30016G21KT 24/14 A2989 RMK A01 T02350139  RH  056%=      5-min Rain = 0
KGDS 150030Z 30013KT 24/14 A2989 RMK A01 T02360139  RH  055%=      5-min Rain = 0
KGDS 150035Z 30012KT 24/14 A2991 RMK A01 T02390136  RH  054%=      5-min Rain = 0
KGDS 150040Z 30013KT 24/13 A2991 RMK A01 T02410133  RH  052%=      5-min Rain = 0
KGDS 150045Z 30013KT 24/13 A2992 RMK A01 T02410134  RH  052%=      5-min Rain = 0
KGDS 150050Z 29013KT 24/14 A2993 RMK A01 T02370139  RH  055%=      5-min Rain = 0
KGDS 150055Z 29009KT 23/15 A2994 RMK A01 T02320145  RH  059%=      5-min Rain = 0
KGDS 150100Z 28008KT 23/15 A2995 RMK A01 T02250150  RH  064%=      5-min Rain = 0
KGDS 150105Z 25013G18KT 22/15 A2995 RMK A01 T02240147  RH  063%=      5-min Rain = 0
KGDS 150110Z 24017G24KT 22/15 A2995 RMK A01 T02230147  RH  063%=      5-min Rain = 0.02
KGDS 150115Z 25017G25KT 22/15 A2996 RMK A01 T02220148  RH  064%=      5-min Rain = 0.01
KGDS 150120Z 26014KT 22/15 A2996 RMK A01 T02160153  RH  069%=      5-min Rain = 0
KGDS 150125Z 27013KT 21/16 A2995 RMK A01 T02130156  RH  071%=      5-min Rain = 0.01
KGDS 150130Z 27010KT 21/16 A2995 RMK A01 T02130158  RH  072%=      5-min Rain = 0.01
KGDS 150135Z 27012KT 21/16 A2995 RMK A01 T02120159  RH  073%=      5-min Rain = 0.01
KGDS 150140Z 26009KT 21/16 A2995 RMK A01 T02110160  RH  074%=      5-min Rain = 0.02
KGDS 150145Z 16005G11KT 21/16 A2993 RMK A01 T02120155  RH  071%=      5-min Rain = 0.01
KGDS 150150Z 15018G23KT 22/15 A299 RMK A01 T02190145  RH  064%=      5-min Rain = 0.01
KGDS 150155Z 14020G25KT 22/14 A2987 RMK A01 T02160141  RH  063%=      5-min Rain = 0.02
KGDS 150200Z 12013G20KT 22/14 A2986 RMK A01 T02170137  RH  062%=      5-min Rain = 0.01
KGDS 150205Z 13005G13KT 22/14 A2987 RMK A01 T02150137  RH  062%=      5-min Rain = 0.01
KGDS 150210Z 05003KT 22/14 A2988 RMK A01 T02180135  RH  060%=      5-min Rain = 0
KGDS 150215Z 06004KT 22/13 A2989 RMK A01 T02210132  RH  058%=      5-min Rain = 0
KGDS 150220Z 14005G10KT 23/13 A2989 RMK A01 T02270129  RH  055%=      5-min Rain = 0
KGDS 150225Z 09008KT 23/13 A2988 RMK A01 T02250134  RH  058%=      5-min Rain = 0
KGDS 150230Z 12008KT 22/14 A2988 RMK A01 T02200139  RH  061%=      5-min Rain = 0
KGDS 150235Z 07006KT 22/14 A2988 RMK A01 T02160141  RH  064%=      5-min Rain = 0
KGDS 150240Z 09007KT 22/14 A2987 RMK A01 T02170140  RH  063%=      5-min Rain = 0
KGDS 150245Z 08008KT 22/14 A2987 RMK A01 T02170140  RH  063%=      5-min Rain = 0
KGDS 150250Z 08005KT 22/15 A2987 RMK A01 T02150147  RH  066%=      5-min Rain = 0
KGDS 150255Z 10006KT 21/15 A2988 RMK A01 T02140147  RH  067%=      5-min Rain = 0
KGDS 150300Z 10006KT 21/15 A2987 RMK A01 T02140145  RH  066%=      5-min Rain = 0
KGDS 150305Z 11006KT 21/15 A2987 RMK A01 T02110148  RH  068%=      5-min Rain = 0
KGDS 150310Z 12004KT 21/15 A2987 RMK A01 T02120146  RH  067%=      5-min Rain = 0
KGDS 150315Z 11005KT 21/15 A2986 RMK A01 T02130145  RH  067%=      5-min Rain = 0
KGDS 150320Z 11005KT 21/14 A2986 RMK A01 T02130144  RH  066%=      5-min Rain = 0
KGDS 150325Z 08006KT 22/15 A2985 RMK A01 T02150145  RH  066%=      5-min Rain = 0
KGDS 150330Z 04006KT 21/15 A2985 RMK A01 T02090153  RH  072%=      5-min Rain = 0
KGDS 150335Z 05007KT 21/15 A2986 RMK A01 T02060148  RH  071%=      5-min Rain = 0
KGDS 150340Z 04005KT 21/15 A2986 RMK A01 T02050148  RH  072%=      5-min Rain = 0
KGDS 150345Z 06006KT 21/15 A2986 RMK A01 T02060147  RH  071%=      5-min Rain = 0
KGDS 150350Z 07006KT 21/15 A2985 RMK A01 T02070146  RH  069%=      5-min Rain = 0
KGDS 150355Z 07008G15KT 21/15 A2985 RMK A01 T02050148  RH  071%=      5-min Rain = 0
KGDS 150400Z 08013KT 21/14 A2986 RMK A01 T02080142  RH  067%=      5-min Rain = 0
KGDS 150405Z 08013KT 21/14 A2986 RMK A01 T02080144  RH  068%=      5-min Rain = 0
KGDS 150410Z 08013KT 20/15 A2985 RMK A01 T02040145  RH  070%=      5-min Rain = 0
KGDS 150415Z 08013KT 20/15 A2985 RMK A01 T02000147  RH  073%=      5-min Rain = 0
KGDS 150420Z 09013KT 20/15 A2985 RMK A01 T01960149  RH  076%=      5-min Rain = 0
KGDS 150425Z 09013KT 20/15 A2986 RMK A01 T01950149  RH  076%=      5-min Rain = 0
KGDS 150430Z 09012KT 19/15 A2985 RMK A01 T01930149  RH  078%=      5-min Rain = 0
KGDS 150435Z 09012KT 19/15 A2985 RMK A01 T01910150  RH  078%=      5-min Rain = 0
KGDS 150440Z 08011KT 19/15 A2986 RMK A01 T01900150  RH  079%=      5-min Rain = 0
KGDS 150445Z 08011KT 19/15 A2986 RMK A01 T01890150  RH  080%=      5-min Rain = 0
KGDS 150450Z 08010KT 19/15 A2987 RMK A01 T01880149  RH  080%=      5-min Rain = 0
KGDS 150455Z 08009KT 19/15 A2987 RMK A01 T01870148  RH  080%=      5-min Rain = 0

Page generated in 0.0092 seconds.